sensor_id;sensor_type;location;lat;lon;timestamp;pressure;altitude;pressure_sealevel;temperature;humidity
23172;BME280;11754;42.664;23.594;2023-04-10T00:01:25;95540.19;;;9.12;60.69
23172;BME280;11754;42.664;23.594;2023-04-10T00:03:51;95542.59;;;9.06;61.88
23172;BME280;11754;42.664;23.594;2023-04-10T00:06:17;95535.84;;;9.03;63.09
23172;BME280;11754;42.664;23.594;2023-04-10T00:08:42;95543.25;;;9.08;63.16
23172;BME280;11754;42.664;23.594;2023-04-10T00:11:07;95528.41;;;8.99;63.66
23172;BME280;11754;42.664;23.594;2023-04-10T00:13:33;95534.41;;;9.09;62.98
23172;BME280;11754;42.664;23.594;2023-04-10T00:15:58;95518.50;;;8.93;64.33
23172;BME280;11754;42.664;23.594;2023-04-10T00:18:23;95530.00;;;8.92;64.74
23172;BME280;11754;42.664;23.594;2023-04-10T00:20:49;95529.03;;;8.93;65.15
23172;BME280;11754;42.664;23.594;2023-04-10T00:23:14;95528.41;;;8.99;64.58
23172;BME280;11754;42.664;23.594;2023-04-10T00:25:40;95519.84;;;8.97;64.09
23172;BME280;11754;42.664;23.594;2023-04-10T00:28:05;95518.50;;;8.93;62.49
23172;BME280;11754;42.664;23.594;2023-04-10T00:30:31;95517.38;;;8.95;62.13
23172;BME280;11754;42.664;23.594;2023-04-10T00:32:56;95514.75;;;8.95;61.99
23172;BME280;11754;42.664;23.594;2023-04-10T00:35:22;95518.34;;;8.94;60.95
23172;BME280;11754;42.664;23.594;2023-04-10T00:37:47;95514.59;;;8.97;61.60
23172;BME280;11754;42.664;23.594;2023-04-10T00:40:14;95512.31;;;9.02;61.73
23172;BME280;11754;42.664;23.594;2023-04-10T00:42:39;95513.03;;;9.12;61.01
23172;BME280;11754;42.664;23.594;2023-04-10T00:45:05;95505.47;;;9.09;60.66
23172;BME280;11754;42.664;23.594;2023-04-10T00:47:30;95501.53;;;9.13;60.62
23172;BME280;11754;42.664;23.594;2023-04-10T00:49:56;95512.31;;;9.02;61.09
23172;BME280;11754;42.664;23.594;2023-04-10T00:52:23;95518.41;;;9.02;60.93
23172;BME280;11754;42.664;23.594;2023-04-10T00:54:49;95507.50;;;8.97;60.87
23172;BME280;11754;42.664;23.594;2023-04-10T00:57:15;95504.78;;;9.07;60.91
23172;BME280;11754;42.664;23.594;2023-04-10T00:59:40;95505.78;;;9.06;61.44
23172;BME280;11754;42.664;23.594;2023-04-10T01:02:06;95501.69;;;9.11;61.72
23172;BME280;11754;42.664;23.594;2023-04-10T01:04:31;95495.47;;;9.21;61.74
23172;BME280;11754;42.664;23.594;2023-04-10T01:15:11;95489.25;;;8.96;62.99
23172;BME280;11754;42.664;23.594;2023-04-10T01:17:42;95488.28;;;8.97;63.19
23172;BME280;11754;42.664;23.594;2023-04-10T01:20:22;95480.84;;;8.92;63.09
23172;BME280;11754;42.664;23.594;2023-04-10T01:25:45;95484.34;;;9.01;62.92
23172;BME280;11754;42.664;23.594;2023-04-10T01:30:49;95490.69;;;8.90;64.16
23172;BME280;11754;42.664;23.594;2023-04-10T01:33:17;95488.88;;;8.90;64.72
23172;BME280;11754;42.664;23.594;2023-04-10T01:35:49;95487.94;;;8.92;64.92
23172;BME280;11754;42.664;23.594;2023-04-10T01:38:18;95492.81;;;8.86;65.65
23172;BME280;11754;42.664;23.594;2023-04-10T01:40:49;95483.63;;;8.90;65.78
23172;BME280;11754;42.664;23.594;2023-04-10T01:43:16;95485.00;;;8.95;65.69
23172;BME280;11754;42.664;23.594;2023-04-10T01:45:45;95480.69;;;8.94;65.44
23172;BME280;11754;42.664;23.594;2023-04-10T01:48:12;95495.56;;;9.03;65.81
23172;BME280;11754;42.664;23.594;2023-04-10T01:50:39;95486.03;;;9.02;66.27
23172;BME280;11754;42.664;23.594;2023-04-10T01:53:05;95482.59;;;9.09;66.13
23172;BME280;11754;42.664;23.594;2023-04-10T01:55:32;95476.56;;;9.17;65.93
23172;BME280;11754;42.664;23.594;2023-04-10T01:57:58;95478.50;;;9.15;66.12
23172;BME280;11754;42.664;23.594;2023-04-10T02:00:26;95474.78;;;9.26;65.67
23172;BME280;11754;42.664;23.594;2023-04-10T02:02:51;95476.88;;;9.14;66.38
23172;BME280;11754;42.664;23.594;2023-04-10T02:05:17;95474.53;;;9.11;66.45
23172;BME280;11754;42.664;23.594;2023-04-10T02:07:45;95460.84;;;8.99;66.30
23172;BME280;11754;42.664;23.594;2023-04-10T02:10:21;95459.66;;;8.94;66.46
23172;BME280;11754;42.664;23.594;2023-04-10T02:12:54;95467.84;;;8.90;66.59
23172;BME280;11754;42.664;23.594;2023-04-10T02:15:26;95462.28;;;8.94;66.60
23172;BME280;11754;42.664;23.594;2023-04-10T02:17:55;95454.59;;;9.00;66.56
23172;BME280;11754;42.664;23.594;2023-04-10T02:20:21;95456.09;;;9.03;66.00
23172;BME280;11754;42.664;23.594;2023-04-10T02:22:48;95447.22;;;9.04;65.99
23172;BME280;11754;42.664;23.594;2023-04-10T02:25:14;95450.53;;;9.06;65.98
23172;BME280;11754;42.664;23.594;2023-04-10T02:27:40;95447.81;;;8.98;65.77
23172;BME280;11754;42.664;23.594;2023-04-10T02:30:06;95449.59;;;8.89;67.10
23172;BME280;11754;42.664;23.594;2023-04-10T02:32:32;95444.06;;;8.66;68.12
23172;BME280;11754;42.664;23.594;2023-04-10T02:34:58;95451.13;;;8.65;67.90
23172;BME280;11754;42.664;23.594;2023-04-10T02:37:24;95450.13;;;8.66;68.10
23172;BME280;11754;42.664;23.594;2023-04-10T02:39:50;95450.00;;;8.76;66.66
23172;BME280;11754;42.664;23.594;2023-04-10T02:42:15;95439.31;;;8.70;66.63
23172;BME280;11754;42.664;23.594;2023-04-10T02:44:41;95446.00;;;8.64;67.23
23172;BME280;11754;42.664;23.594;2023-04-10T02:47:06;95434.16;;;8.60;66.39
23172;BME280;11754;42.664;23.594;2023-04-10T02:49:33;95446.31;;;8.61;66.22
23172;BME280;11754;42.664;23.594;2023-04-10T02:52:02;95443.63;;;8.53;65.99
23172;BME280;11754;42.664;23.594;2023-04-10T02:54:27;95443.38;;;8.64;65.99
23172;BME280;11754;42.664;23.594;2023-04-10T02:56:52;95439.06;;;8.55;65.83
23172;BME280;11754;42.664;23.594;2023-04-10T02:59:18;95438.38;;;8.53;66.53
23172;BME280;11754;42.664;23.594;2023-04-10T03:01:45;95445.69;;;8.41;67.25
23172;BME280;11754;42.664;23.594;2023-04-10T03:04:11;95433.50;;;8.22;68.10
23172;BME280;11754;42.664;23.594;2023-04-10T03:06:36;95436.81;;;8.24;68.43
23172;BME280;11754;42.664;23.594;2023-04-10T03:09:02;95433.69;;;8.21;68.35
23172;BME280;11754;42.664;23.594;2023-04-10T03:11:27;95435.50;;;8.02;69.44
23172;BME280;11754;42.664;23.594;2023-04-10T03:13:53;95435.44;;;7.94;69.79
23172;BME280;11754;42.664;23.594;2023-04-10T03:16:18;95438.81;;;7.86;70.40
23172;BME280;11754;42.664;23.594;2023-04-10T03:18:45;95444.28;;;7.75;70.81
23172;BME280;11754;42.664;23.594;2023-04-10T03:21:10;95452.06;;;7.67;71.15
23172;BME280;11754;42.664;23.594;2023-04-10T03:23:36;95446.81;;;7.67;71.27
23172;BME280;11754;42.664;23.594;2023-04-10T03:26:02;95443.84;;;7.62;71.34
23172;BME280;11754;42.664;23.594;2023-04-10T03:28:29;95446.38;;;7.54;71.37
23172;BME280;11754;42.664;23.594;2023-04-10T03:30:55;95448.91;;;7.45;71.82
23172;BME280;11754;42.664;23.594;2023-04-10T03:33:21;95449.50;;;7.39;71.99
23172;BME280;11754;42.664;23.594;2023-04-10T03:35:47;95449.25;;;7.33;72.32
23172;BME280;11754;42.664;23.594;2023-04-10T03:38:12;95452.03;;;7.31;72.18
23172;BME280;11754;42.664;23.594;2023-04-10T03:40:38;95448.19;;;7.26;72.45
23172;BME280;11754;42.664;23.594;2023-04-10T03:43:03;95443.53;;;7.19;72.82
23172;BME280;11754;42.664;23.594;2023-04-10T03:45:29;95457.19;;;7.23;73.06
23172;BME280;11754;42.664;23.594;2023-04-10T03:47:54;95446.31;;;7.18;72.93
23172;BME280;11754;42.664;23.594;2023-04-10T03:50:20;95460.09;;;7.20;72.51
23172;BME280;11754;42.664;23.594;2023-04-10T03:52:45;95453.19;;;7.19;73.08
23172;BME280;11754;42.664;23.594;2023-04-10T03:55:11;95454.56;;;7.23;72.87
23172;BME280;11754;42.664;23.594;2023-04-10T03:57:36;95461.16;;;7.27;72.30
23172;BME280;11754;42.664;23.594;2023-04-10T04:00:03;95463.13;;;7.25;72.59
23172;BME280;11754;42.664;23.594;2023-04-10T04:02:30;95456.19;;;7.24;72.13
23172;BME280;11754;42.664;23.594;2023-04-10T04:04:55;95464.22;;;7.22;72.10
23172;BME280;11754;42.664;23.594;2023-04-10T04:07:21;95460.09;;;7.20;72.46
23172;BME280;11754;42.664;23.594;2023-04-10T04:09:46;95468.94;;;7.19;72.25
23172;BME280;11754;42.664;23.594;2023-04-10T04:12:12;95471.03;;;7.15;72.05
23172;BME280;11754;42.664;23.594;2023-04-10T04:14:37;95462.63;;;7.12;72.52
23172;BME280;11754;42.664;23.594;2023-04-10T04:17:02;95467.78;;;7.04;72.62
23172;BME280;11754;42.664;23.594;2023-04-10T04:19:28;95479.50;;;6.99;72.56
23172;BME280;11754;42.664;23.594;2023-04-10T04:21:54;95483.97;;;6.89;71.99
23172;BME280;11754;42.664;23.594;2023-04-10T04:24:19;95487.41;;;6.90;71.52
23172;BME280;11754;42.664;23.594;2023-04-10T04:26:46;95485.34;;;6.84;71.14
23172;BME280;11754;42.664;23.594;2023-04-10T04:29:11;95492.22;;;6.94;70.29
23172;BME280;11754;42.664;23.594;2023-04-10T04:31:36;95486.19;;;6.84;69.66
23172;BME280;11754;42.664;23.594;2023-04-10T04:34:02;95491.16;;;6.87;69.60
23172;BME280;11754;42.664;23.594;2023-04-10T04:36:27;95489.50;;;6.86;70.02
23172;BME280;11754;42.664;23.594;2023-04-10T04:38:53;95485.91;;;6.78;70.33
23172;BME280;11754;42.664;23.594;2023-04-10T04:41:19;95488.41;;;6.79;70.75
23172;BME280;11754;42.664;23.594;2023-04-10T04:43:44;95486.69;;;6.97;70.48
23172;BME280;11754;42.664;23.594;2023-04-10T04:46:12;95488.06;;;7.02;69.80
23172;BME280;11754;42.664;23.594;2023-04-10T04:48:37;95480.34;;;7.00;70.24
23172;BME280;11754;42.664;23.594;2023-04-10T04:51:04;95487.50;;;7.08;70.60
23172;BME280;11754;42.664;23.594;2023-04-10T04:53:30;95484.81;;;7.17;70.20
23172;BME280;11754;42.664;23.594;2023-04-10T04:55:55;95489.94;;;7.19;70.25
23172;BME280;11754;42.664;23.594;2023-04-10T04:58:21;95495.47;;;7.16;70.86
23172;BME280;11754;42.664;23.594;2023-04-10T05:00:48;95493.34;;;7.29;71.10
23172;BME280;11754;42.664;23.594;2023-04-10T05:03:14;95496.66;;;7.49;70.80
23172;BME280;11754;42.664;23.594;2023-04-10T05:05:39;95485.22;;;7.68;70.06
23172;BME280;11754;42.664;23.594;2023-04-10T05:08:05;95484.81;;;7.90;70.08
23172;BME280;11754;42.664;23.594;2023-04-10T05:10:30;95480.00;;;8.04;69.07
23172;BME280;11754;42.664;23.594;2023-04-10T05:12:56;95483.06;;;8.35;68.51
23172;BME280;11754;42.664;23.594;2023-04-10T05:15:21;95479.09;;;8.49;67.37
23172;BME280;11754;42.664;23.594;2023-04-10T05:17:48;95487.09;;;8.65;66.52
23172;BME280;11754;42.664;23.594;2023-04-10T05:20:15;95490.13;;;8.78;65.46
23172;BME280;11754;42.664;23.594;2023-04-10T05:22:41;95479.94;;;8.75;65.21
23172;BME280;11754;42.664;23.594;2023-04-10T05:25:06;95486.00;;;8.76;65.41
23172;BME280;11754;42.664;23.594;2023-04-10T05:27:32;95496.13;;;8.88;65.09
23172;BME280;11754;42.664;23.594;2023-04-10T05:29:57;95496.16;;;8.97;65.10
23172;BME280;11754;42.664;23.594;2023-04-10T05:32:22;95483.38;;;9.02;65.38
23172;BME280;11754;42.664;23.594;2023-04-10T05:34:48;95495.69;;;9.01;64.75
23172;BME280;11754;42.664;23.594;2023-04-10T05:37:13;95491.28;;;9.02;64.51
23172;BME280;11754;42.664;23.594;2023-04-10T05:39:39;95494.25;;;9.07;64.07
23172;BME280;11754;42.664;23.594;2023-04-10T05:42:04;95496.63;;;9.18;64.29
23172;BME280;11754;42.664;23.594;2023-04-10T05:44:30;95493.91;;;9.36;63.45
23172;BME280;11754;42.664;23.594;2023-04-10T05:46:55;95490.16;;;9.47;63.15
23172;BME280;11754;42.664;23.594;2023-04-10T05:49:21;95494.81;;;9.53;63.27
23172;BME280;11754;42.664;23.594;2023-04-10T05:51:46;95498.44;;;9.60;62.62
23172;BME280;11754;42.664;23.594;2023-04-10T05:54:15;95493.72;;;9.80;62.21
23172;BME280;11754;42.664;23.594;2023-04-10T05:56:41;95491.63;;;10.00;61.24
23172;BME280;11754;42.664;23.594;2023-04-10T05:59:06;95491.13;;;10.13;61.02
23172;BME280;11754;42.664;23.594;2023-04-10T06:01:31;95502.88;;;10.34;60.12
23172;BME280;11754;42.664;23.594;2023-04-10T06:03:57;95499.72;;;10.23;60.60
23172;BME280;11754;42.664;23.594;2023-04-10T06:06:22;95505.03;;;10.31;60.78
23172;BME280;11754;42.664;23.594;2023-04-10T06:08:50;95497.91;;;10.15;60.55
23172;BME280;11754;42.664;23.594;2023-04-10T06:11:15;95496.59;;;10.11;61.48
23172;BME280;11754;42.664;23.594;2023-04-10T06:13:41;95491.63;;;10.08;62.05
23172;BME280;11754;42.664;23.594;2023-04-10T06:16:07;95497.22;;;10.05;62.24
23172;BME280;11754;42.664;23.594;2023-04-10T06:18:32;95495.91;;;10.09;62.67
23172;BME280;11754;42.664;23.594;2023-04-10T06:20:58;95497.41;;;10.03;63.02
23172;BME280;11754;42.664;23.594;2023-04-10T06:23:26;95493.13;;;10.10;62.96
23172;BME280;11754;42.664;23.594;2023-04-10T06:25:53;95498.59;;;10.17;62.64
23172;BME280;11754;42.664;23.594;2023-04-10T06:28:18;95500.59;;;10.31;62.69
23172;BME280;11754;42.664;23.594;2023-04-10T06:30:43;95496.63;;;10.27;62.22
23172;BME280;11754;42.664;23.594;2023-04-10T06:33:09;95486.22;;;10.18;62.53
23172;BME280;11754;42.664;23.594;2023-04-10T06:35:35;95501.25;;;10.25;62.53
23172;BME280;11754;42.664;23.594;2023-04-10T06:38:00;95499.94;;;10.62;61.89
23172;BME280;11754;42.664;23.594;2023-04-10T06:40:26;95501.56;;;10.88;61.28
23172;BME280;11754;42.664;23.594;2023-04-10T06:42:53;95502.03;;;10.91;60.60
23172;BME280;11754;42.664;23.594;2023-04-10T06:45:19;95494.97;;;10.83;61.00
23172;BME280;11754;42.664;23.594;2023-04-10T06:47:45;95505.16;;;10.95;61.25
23172;BME280;11754;42.664;23.594;2023-04-10T06:50:10;95504.50;;;11.01;61.02
23172;BME280;11754;42.664;23.594;2023-04-10T06:52:36;95502.34;;;11.04;60.53
23172;BME280;11754;42.664;23.594;2023-04-10T06:55:01;95514.72;;;11.12;60.23
23172;BME280;11754;42.664;23.594;2023-04-10T06:57:27;95513.88;;;11.20;60.11
23172;BME280;11754;42.664;23.594;2023-04-10T06:59:53;95519.59;;;11.31;60.16
23172;BME280;11754;42.664;23.594;2023-04-10T07:02:18;95512.81;;;11.37;59.82
23172;BME280;11754;42.664;23.594;2023-04-10T07:04:44;95513.84;;;11.28;60.02
23172;BME280;11754;42.664;23.594;2023-04-10T07:07:09;95516.69;;;11.10;59.93
23172;BME280;11754;42.664;23.594;2023-04-10T07:09:36;95507.84;;;10.78;61.05
23172;BME280;11754;42.664;23.594;2023-04-10T07:12:02;95518.03;;;10.81;61.14
23172;BME280;11754;42.664;23.594;2023-04-10T07:14:28;95517.38;;;10.88;61.72
23172;BME280;11754;42.664;23.594;2023-04-10T07:16:53;95514.41;;;10.99;61.24
23172;BME280;11754;42.664;23.594;2023-04-10T07:19:19;95513.53;;;11.23;61.05
23172;BME280;11754;42.664;23.594;2023-04-10T07:21:45;95499.88;;;11.59;60.27
23172;BME280;11754;42.664;23.594;2023-04-10T07:24:15;95515.03;;;12.04;59.40
23172;BME280;11754;42.664;23.594;2023-04-10T07:26:40;95512.38;;;12.04;57.84
23172;BME280;11754;42.664;23.594;2023-04-10T07:29:06;95519.28;;;12.13;57.88
23172;BME280;11754;42.664;23.594;2023-04-10T07:31:31;95506.25;;;12.35;57.60
23172;BME280;11754;42.664;23.594;2023-04-10T07:33:57;95512.34;;;12.58;56.73
23172;BME280;11754;42.664;23.594;2023-04-10T07:36:22;95512.91;;;12.68;56.25
23172;BME280;11754;42.664;23.594;2023-04-10T07:38:48;95502.84;;;12.49;55.50
23172;BME280;11754;42.664;23.594;2023-04-10T07:41:13;95510.19;;;12.39;55.83
23172;BME280;11754;42.664;23.594;2023-04-10T07:43:38;95507.03;;;12.58;55.35
23172;BME280;11754;42.664;23.594;2023-04-10T07:46:04;95490.81;;;12.61;54.77
23172;BME280;11754;42.664;23.594;2023-04-10T07:48:29;95496.47;;;12.35;54.45
23172;BME280;11754;42.664;23.594;2023-04-10T07:50:55;95496.59;;;12.42;54.75
23172;BME280;11754;42.664;23.594;2023-04-10T07:53:20;95492.38;;;12.56;54.28
23172;BME280;11754;42.664;23.594;2023-04-10T07:55:45;95506.72;;;12.76;53.34
23172;BME280;11754;42.664;23.594;2023-04-10T07:58:13;95509.50;;;12.83;52.74
23172;BME280;11754;42.664;23.594;2023-04-10T08:00:38;95505.13;;;12.90;52.36
23172;BME280;11754;42.664;23.594;2023-04-10T08:03:04;95502.94;;;12.93;52.38
23172;BME280;11754;42.664;23.594;2023-04-10T08:05:30;95495.97;;;12.78;52.56
23172;BME280;11754;42.664;23.594;2023-04-10T08:07:55;95500.00;;;12.73;52.54
23172;BME280;11754;42.664;23.594;2023-04-10T08:10:21;95509.28;;;12.69;52.91
23172;BME280;11754;42.664;23.594;2023-04-10T08:12:46;95498.41;;;13.02;52.00
23172;BME280;11754;42.664;23.594;2023-04-10T08:15:12;95501.81;;;13.26;50.89
23172;BME280;11754;42.664;23.594;2023-04-10T08:17:37;95504.38;;;13.49;50.65
23172;BME280;11754;42.664;23.594;2023-04-10T08:20:03;95502.78;;;13.84;50.08
23172;BME280;11754;42.664;23.594;2023-04-10T08:22:29;95501.44;;;14.09;48.15
23172;BME280;11754;42.664;23.594;2023-04-10T08:24:54;95491.22;;;14.06;48.43
23172;BME280;11754;42.664;23.594;2023-04-10T08:27:20;95493.84;;;13.85;48.59
23172;BME280;11754;42.664;23.594;2023-04-10T08:29:45;95499.16;;;13.85;48.18
23172;BME280;11754;42.664;23.594;2023-04-10T08:32:10;95501.81;;;14.06;46.92
23172;BME280;11754;42.664;23.594;2023-04-10T08:34:36;95494.88;;;14.05;46.92
23172;BME280;11754;42.664;23.594;2023-04-10T08:37:07;95503.16;;;13.81;47.47
23172;BME280;11754;42.664;23.594;2023-04-10T08:39:34;95491.94;;;13.79;47.30
23172;BME280;11754;42.664;23.594;2023-04-10T08:42:01;95489.13;;;13.65;47.32
23172;BME280;11754;42.664;23.594;2023-04-10T08:44:27;95488.31;;;13.50;46.92
23172;BME280;11754;42.664;23.594;2023-04-10T08:46:56;95488.94;;;13.67;45.88
23172;BME280;11754;42.664;23.594;2023-04-10T08:49:52;95492.81;;;13.35;46.03
23172;BME280;11754;42.664;23.594;2023-04-10T08:52:20;95496.88;;;13.37;46.16
23172;BME280;11754;42.664;23.594;2023-04-10T08:54:49;95489.03;;;13.44;46.20
23172;BME280;11754;42.664;23.594;2023-04-10T08:57:15;95483.81;;;13.65;46.14
23172;BME280;11754;42.664;23.594;2023-04-10T08:59:51;95485.25;;;13.83;45.21
23172;BME280;11754;42.664;23.594;2023-04-10T09:02:17;95480.09;;;13.96;44.76
23172;BME280;11754;42.664;23.594;2023-04-10T09:04:48;95489.88;;;13.95;44.45
23172;BME280;11754;42.664;23.594;2023-04-10T09:07:15;95483.69;;;13.74;44.62
23172;BME280;11754;42.664;23.594;2023-04-10T09:09:41;95474.38;;;13.63;43.83
23172;BME280;11754;42.664;23.594;2023-04-10T09:12:06;95476.25;;;13.48;44.58
23172;BME280;11754;42.664;23.594;2023-04-10T09:14:33;95469.41;;;13.24;45.80
23172;BME280;11754;42.664;23.594;2023-04-10T09:19:36;95477.75;;;13.12;45.79
23172;BME280;11754;42.664;23.594;2023-04-10T09:22:02;95473.09;;;12.85;46.33
23172;BME280;11754;42.664;23.594;2023-04-10T09:24:28;95473.25;;;12.83;45.92
23172;BME280;11754;42.664;23.594;2023-04-10T09:26:54;95473.94;;;13.00;46.35
23172;BME280;11754;42.664;23.594;2023-04-10T09:29:20;95462.28;;;13.39;46.06
23172;BME280;11754;42.664;23.594;2023-04-10T09:31:45;95455.44;;;13.81;45.96
23172;BME280;11754;42.664;23.594;2023-04-10T09:34:18;95460.19;;;14.22;45.02
23172;BME280;11754;42.664;23.594;2023-04-10T09:36:53;95462.25;;;14.48;44.46
23172;BME280;11754;42.664;23.594;2023-04-10T09:39:19;95458.59;;;14.49;44.30
23172;BME280;11754;42.664;23.594;2023-04-10T09:41:52;95453.47;;;14.69;43.90
23172;BME280;11754;42.664;23.594;2023-04-10T09:44:34;95453.97;;;14.79;43.34
23172;BME280;11754;42.664;23.594;2023-04-10T09:47:15;95450.13;;;14.60;43.32
23172;BME280;11754;42.664;23.594;2023-04-10T09:49:55;95452.25;;;14.99;43.33
23172;BME280;11754;42.664;23.594;2023-04-10T09:52:25;95441.31;;;14.81;42.91
23172;BME280;11754;42.664;23.594;2023-04-10T09:55:11;95443.38;;;14.85;42.89
23172;BME280;11754;42.664;23.594;2023-04-10T09:57:41;95437.03;;;15.08;43.28
23172;BME280;11754;42.664;23.594;2023-04-10T10:00:09;95431.09;;;15.47;40.84
23172;BME280;11754;42.664;23.594;2023-04-10T10:02:36;95423.84;;;15.76;40.12
23172;BME280;11754;42.664;23.594;2023-04-10T10:05:06;95429.72;;;16.26;39.10
23172;BME280;11754;42.664;23.594;2023-04-10T10:07:31;95425.47;;;16.78;38.78
23172;BME280;11754;42.664;23.594;2023-04-10T10:09:57;95427.69;;;17.27;37.70
23172;BME280;11754;42.664;23.594;2023-04-10T10:12:32;95427.53;;;16.76;37.99
23172;BME280;11754;42.664;23.594;2023-04-10T10:15:03;95414.19;;;16.43;38.61
23172;BME280;11754;42.664;23.594;2023-04-10T10:17:37;95416.22;;;16.21;38.11
23172;BME280;11754;42.664;23.594;2023-04-10T10:20:08;95421.13;;;16.17;38.24
23172;BME280;11754;42.664;23.594;2023-04-10T10:22:36;95407.00;;;16.37;38.13
23172;BME280;11754;42.664;23.594;2023-04-10T10:25:02;95407.53;;;17.38;36.71
23172;BME280;11754;42.664;23.594;2023-04-10T10:27:30;95403.63;;;18.56;34.65
23172;BME280;11754;42.664;23.594;2023-04-10T10:29:59;95393.69;;;20.16;32.31
23172;BME280;11754;42.664;23.594;2023-04-10T10:32:25;95365.75;;;25.25;26.97
23172;BME280;11754;42.664;23.594;2023-04-10T10:34:52;95362.53;;;29.08;22.18
23172;BME280;11754;42.664;23.594;2023-04-10T10:37:19;95353.09;;;31.70;19.58
23172;BME280;11754;42.664;23.594;2023-04-10T10:39:59;95349.34;;;33.47;17.69
23172;BME280;11754;42.664;23.594;2023-04-10T10:45:20;95346.88;;;29.29;19.65
23172;BME280;11754;42.664;23.594;2023-04-10T10:47:55;95345.13;;;27.16;21.44
23172;BME280;11754;42.664;23.594;2023-04-10T10:50:21;95333.31;;;25.20;23.46
23172;BME280;11754;42.664;23.594;2023-04-10T10:52:54;95352.84;;;22.65;25.43
23172;BME280;11754;42.664;23.594;2023-04-10T10:57:48;95343.03;;;19.18;29.79
23172;BME280;11754;42.664;23.594;2023-04-10T11:00:16;95347.59;;;18.74;30.84
23172;BME280;11754;42.664;23.594;2023-04-10T11:05:59;95346.06;;;17.26;33.60
23172;BME280;11754;42.664;23.594;2023-04-10T11:11:12;95332.41;;;17.10;34.99
23172;BME280;11754;42.664;23.594;2023-04-10T11:13:41;95330.34;;;19.13;32.76
23172;BME280;11754;42.664;23.594;2023-04-10T11:16:08;95333.72;;;20.71;30.45
23172;BME280;11754;42.664;23.594;2023-04-10T11:21:14;95340.09;;;19.26;31.73
23172;BME280;11754;42.664;23.594;2023-04-10T11:31:47;95354.78;;;16.62;37.00
23172;BME280;11754;42.664;23.594;2023-04-10T11:34:19;95340.84;;;16.00;38.49
23172;BME280;11754;42.664;23.594;2023-04-10T11:36:45;95339.19;;;15.73;38.39
23172;BME280;11754;42.664;23.594;2023-04-10T11:39:15;95346.88;;;15.54;42.23
23172;BME280;11754;42.664;23.594;2023-04-10T11:41:43;95342.25;;;15.15;43.78
23172;BME280;11754;42.664;23.594;2023-04-10T11:44:13;95328.94;;;14.74;42.96
23172;BME280;11754;42.664;23.594;2023-04-10T11:46:41;95335.66;;;14.70;42.07
23172;BME280;11754;42.664;23.594;2023-04-10T11:49:08;95335.84;;;15.03;43.90
23172;BME280;11754;42.664;23.594;2023-04-10T11:51:35;95313.72;;;15.50;44.74
23172;BME280;11754;42.664;23.594;2023-04-10T11:54:06;95337.34;;;15.86;44.31
23172;BME280;11754;42.664;23.594;2023-04-10T11:56:32;95345.59;;;16.38;44.04
23172;BME280;11754;42.664;23.594;2023-04-10T11:58:57;95335.50;;;17.00;40.65
23172;BME280;11754;42.664;23.594;2023-04-10T12:01:23;95330.38;;;17.50;39.30
23172;BME280;11754;42.664;23.594;2023-04-10T12:03:48;95332.44;;;17.41;38.82
23172;BME280;11754;42.664;23.594;2023-04-10T12:06:14;95337.94;;;16.95;39.53
23172;BME280;11754;42.664;23.594;2023-04-10T12:08:45;95329.41;;;16.46;39.78
23172;BME280;11754;42.664;23.594;2023-04-10T12:11:11;95330.03;;;16.22;39.63
23172;BME280;11754;42.664;23.594;2023-04-10T12:13:37;95331.66;;;16.63;38.26
23172;BME280;11754;42.664;23.594;2023-04-10T12:16:06;95322.56;;;18.25;36.58
23172;BME280;11754;42.664;23.594;2023-04-10T12:18:32;95313.03;;;20.36;33.86
23172;BME280;11754;42.664;23.594;2023-04-10T12:20:59;95291.97;;;24.07;28.45
23172;BME280;11754;42.664;23.594;2023-04-10T12:23:28;95285.03;;;26.42;25.19
23172;BME280;11754;42.664;23.594;2023-04-10T12:26:12;95287.50;;;27.65;22.95
23172;BME280;11754;42.664;23.594;2023-04-10T12:28:39;95285.88;;;27.69;22.44
23172;BME280;11754;42.664;23.594;2023-04-10T12:31:06;95276.50;;;28.74;21.28
23172;BME280;11754;42.664;23.594;2023-04-10T12:33:32;95278.31;;;28.15;21.35
23172;BME280;11754;42.664;23.594;2023-04-10T12:35:57;95277.22;;;27.62;21.41
23172;BME280;11754;42.664;23.594;2023-04-10T12:38:40;95264.31;;;28.42;20.84
23172;BME280;11754;42.664;23.594;2023-04-10T12:41:07;95267.91;;;29.20;20.68
23172;BME280;11754;42.664;23.594;2023-04-10T12:43:41;95267.75;;;29.78;20.38
23172;BME280;11754;42.664;23.594;2023-04-10T12:46:24;95249.03;;;29.96;19.57
23172;BME280;11754;42.664;23.594;2023-04-10T12:48:50;95247.94;;;30.34;19.39
23172;BME280;11754;42.664;23.594;2023-04-10T12:51:15;95259.06;;;30.84;19.40
23172;BME280;11754;42.664;23.594;2023-04-10T12:53:44;95248.22;;;28.12;20.78
23172;BME280;11754;42.664;23.594;2023-04-10T12:56:11;95257.75;;;26.23;22.79
23172;BME280;11754;42.664;23.594;2023-04-10T12:58:38;95255.50;;;23.67;25.43
23172;BME280;11754;42.664;23.594;2023-04-10T13:01:05;95256.25;;;22.97;26.50
23172;BME280;11754;42.664;23.594;2023-04-10T13:03:34;95236.31;;;24.23;25.42
23172;BME280;11754;42.664;23.594;2023-04-10T13:06:04;95248.91;;;24.82;24.31
23172;BME280;11754;42.664;23.594;2023-04-10T13:08:31;95247.63;;;27.11;22.41
23172;BME280;11754;42.664;23.594;2023-04-10T13:10:57;95241.44;;;27.70;21.86
23172;BME280;11754;42.664;23.594;2023-04-10T13:13:27;95235.41;;;27.28;21.44
23172;BME280;11754;42.664;23.594;2023-04-10T13:15:53;95230.47;;;26.15;22.61
23172;BME280;11754;42.664;23.594;2023-04-10T13:18:19;95235.94;;;24.84;24.00
23172;BME280;11754;42.664;23.594;2023-04-10T13:20:45;95221.56;;;25.10;23.86
23172;BME280;11754;42.664;23.594;2023-04-10T13:23:10;95230.84;;;24.87;23.45
23172;BME280;11754;42.664;23.594;2023-04-10T13:25:38;95233.88;;;24.54;24.46
23172;BME280;11754;42.664;23.594;2023-04-10T13:28:04;95225.53;;;24.23;24.81
23172;BME280;11754;42.664;23.594;2023-04-10T13:30:34;95226.97;;;24.31;25.13
23172;BME280;11754;42.664;23.594;2023-04-10T13:33:00;95217.41;;;23.81;24.92